Time;durP1;ratioP1;P1;durP2;ratioP2;P2;SDS_P1;SDS_P2;PMS_P1;PMS_P2;Temp;Humidity;BMP_temperature;BMP_pressure;BME280_temperature;BME280_humidity;BME280_pressure;Samples;Min_cycle;Max_cycle;Signal;HPM_P1;HPM_P2
2022/08/15 00:01:55;;;;;;;5.85;3.95;;;;;;;;;;4950898;28;20352;-64
2022/08/15 00:04:20;;;;;;;6.20;4.53;;;;;;;;;;4948897;28;20392;-64
2022/08/15 00:06:46;;;;;;;6.55;4.28;;;;;;;;;;4949560;28;20105;-64
2022/08/15 00:09:18;;;;;;;8.18;3.53;;;;;;;;;;4948921;28;20340;-64
2022/08/15 00:11:45;;;;;;;5.22;4.13;;;;;;;;;;4948962;28;20029;-67
2022/08/15 00:14:18;;;;;;;6.80;4.03;;;;;;;;;;4949832;28;20109;-64
2022/08/15 00:16:44;;;;;;;5.93;4.20;;;;;;;;;;4948549;28;20523;-64
2022/08/15 00:19:16;;;;;;;6.68;3.90;;;;;;;;;;4948611;28;20468;-65
2022/08/15 00:21:46;;;;;;;7.30;4.05;;;;;;;;;;4948752;28;20109;-64
2022/08/15 00:24:14;;;;;;;6.38;3.95;;;;;;;;;;4949873;28;20376;-65
2022/08/15 00:26:40;;;;;;;6.95;4.10;;;;;;;;;;4948703;28;20108;-64
2022/08/15 00:29:07;;;;;;;5.95;4.15;;;;;;;;;;4949702;28;20342;-65
2022/08/15 00:31:32;;;;;;;8.27;4.05;;;;;;;;;;4949802;28;20049;-64
2022/08/15 00:33:59;;;;;;;6.40;4.03;;;;;;;;;;4950032;28;20462;-64
2022/08/15 00:36:25;;;;;;;6.22;3.97;;;;;;;;;;4949110;28;20437;-65
2022/08/15 00:38:51;;;;;;;5.38;4.05;;;;;;;;;;4948491;28;20119;-64
2022/08/15 00:44:02;;;;;;;6.22;4.38;;;;;;;;;;4949442;28;20510;-64
2022/08/15 00:46:29;;;;;;;5.40;4.07;;;;;;;;;;4948545;28;20423;-64
2022/08/15 00:48:55;;;;;;;7.47;4.15;;;;;;;;;;4947886;28;20445;-64
2022/08/15 00:51:44;;;;;;;6.85;3.72;;;;;;;;;;4948557;28;20399;-64
2022/08/15 00:54:13;;;;;;;5.60;3.88;;;;;;;;;;4948719;28;20456;-64
2022/08/15 00:56:46;;;;;;;7.40;4.50;;;;;;;;;;4949285;28;20450;-64
2022/08/15 00:59:14;;;;;;;5.60;3.97;;;;;;;;;;4947002;28;20351;-65
2022/08/15 01:01:40;;;;;;;5.40;3.95;;;;;;;;;;4953853;28;20400;-64
2022/08/15 01:04:11;;;;;;;5.47;4.10;;;;;;;;;;4956321;28;20352;-64
2022/08/15 01:06:37;;;;;;;8.48;4.75;;;;;;;;;;4948376;28;20388;-64
2022/08/15 01:09:07;;;;;;;6.75;4.10;;;;;;;;;;4948607;28;20337;-64
2022/08/15 01:11:44;;;;;;;7.20;3.85;;;;;;;;;;4947665;28;20049;-64
2022/08/15 01:14:10;;;;;;;4.10;3.47;;;;;;;;;;4947187;28;20441;-64
2022/08/15 01:16:40;;;;;;;5.88;4.22;;;;;;;;;;4946661;28;20396;-64
2022/08/15 01:19:12;;;;;;;5.32;3.65;;;;;;;;;;4946627;28;20500;-65
2022/08/15 01:22:04;;;;;;;6.68;4.40;;;;;;;;;;4946780;28;20461;-64
2022/08/15 01:24:59;;;;;;;5.93;3.67;;;;;;;;;;4947851;28;20346;-64
2022/08/15 01:27:29;;;;;;;5.30;3.92;;;;;;;;;;4946997;28;20456;-64
2022/08/15 01:29:55;;;;;;;5.88;3.60;;;;;;;;;;4947850;28;20030;-64
2022/08/15 01:32:21;;;;;;;7.32;4.00;;;;;;;;;;4947705;28;20400;-64
2022/08/15 01:34:46;;;;;;;6.38;3.88;;;;;;;;;;4948194;28;20034;-64
2022/08/15 01:37:12;;;;;;;7.07;4.55;;;;;;;;;;4948067;28;20453;-64
2022/08/15 01:39:51;;;;;;;4.82;3.65;;;;;;;;;;4948154;28;20123;-64
2022/08/15 01:42:29;;;;;;;6.15;4.20;;;;;;;;;;4946823;28;20448;-64
2022/08/15 01:45:03;;;;;;;5.90;3.78;;;;;;;;;;4946510;28;20176;-64
2022/08/15 01:47:31;;;;;;;5.35;3.70;;;;;;;;;;4947985;28;20392;-64
2022/08/15 01:50:07;;;;;;;5.60;3.97;;;;;;;;;;4946645;28;20440;-64
2022/08/15 01:52:50;;;;;;;5.43;4.03;;;;;;;;;;4947857;28;20529;-64
2022/08/15 01:55:16;;;;;;;6.53;4.20;;;;;;;;;;4947971;28;20152;-65
2022/08/15 01:57:42;;;;;;;6.57;4.25;;;;;;;;;;4946827;28;20499;-64
2022/08/15 02:00:10;;;;;;;6.03;3.88;;;;;;;;;;4948620;28;20424;-64
2022/08/15 02:02:35;;;;;;;7.80;4.05;;;;;;;;;;4951275;28;20046;-64
2022/08/15 02:05:01;;;;;;;5.97;4.50;;;;;;;;;;4952411;28;20452;-65
2022/08/15 02:07:28;;;;;;;6.05;3.72;;;;;;;;;;4951336;28;20396;-64
2022/08/15 02:09:55;;;;;;;8.55;4.07;;;;;;;;;;4951226;28;20499;-64
2022/08/15 02:12:28;;;;;;;7.28;4.75;;;;;;;;;;4951462;28;20099;-65
2022/08/15 02:14:54;;;;;;;5.15;3.60;;;;;;;;;;4951638;28;20091;-64
2022/08/15 02:17:20;;;;;;;6.97;3.85;;;;;;;;;;4951108;28;20523;-64
2022/08/15 02:19:48;;;;;;;6.00;4.05;;;;;;;;;;4951109;28;20439;-64
2022/08/15 02:22:15;;;;;;;6.25;3.83;;;;;;;;;;4949488;28;20468;-64
2022/08/15 02:24:40;;;;;;;5.65;4.30;;;;;;;;;;4951056;28;20052;-64
2022/08/15 02:27:06;;;;;;;5.50;3.75;;;;;;;;;;4951805;28;20444;-64
2022/08/15 02:29:32;;;;;;;5.60;4.30;;;;;;;;;;4950973;28;20527;-64
2022/08/15 02:32:02;;;;;;;4.85;3.45;;;;;;;;;;4950547;28;20393;-64
2022/08/15 02:34:27;;;;;;;5.05;3.67;;;;;;;;;;4950923;28;20341;-64
2022/08/15 02:36:53;;;;;;;5.78;3.92;;;;;;;;;;4951022;28;20330;-64
2022/08/15 02:39:18;;;;;;;6.03;3.75;;;;;;;;;;4951031;28;20433;-64
2022/08/15 02:41:50;;;;;;;6.70;4.00;;;;;;;;;;4950693;28;20469;-65
2022/08/15 02:44:16;;;;;;;4.30;3.30;;;;;;;;;;4950783;28;20364;-64
2022/08/15 02:46:43;;;;;;;4.85;3.80;;;;;;;;;;4950659;28;20437;-64
2022/08/15 02:49:11;;;;;;;5.95;3.90;;;;;;;;;;4951255;28;20413;-64
2022/08/15 02:51:37;;;;;;;;;;;;;;;;;;4952573;28;20512;-64
2022/08/15 02:54:05;;;;;;;5.53;3.63;;;;;;;;;;4951404;28;20330;-64
2022/08/15 02:56:31;;;;;;;5.28;3.78;;;;;;;;;;4950515;28;20483;-64
2022/08/15 02:58:57;;;;;;;4.18;3.42;;;;;;;;;;4950637;28;20341;-64
2022/08/15 03:01:23;;;;;;;5.95;4.22;;;;;;;;;;4950204;28;20318;-64
2022/08/15 03:03:51;;;;;;;4.57;3.50;;;;;;;;;;4951603;28;20405;-65
2022/08/15 03:06:20;;;;;;;5.07;3.63;;;;;;;;;;4950749;28;20437;-64
2022/08/15 03:08:45;;;;;;;5.65;3.90;;;;;;;;;;4950885;28;20444;-64
2022/08/15 03:11:13;;;;;;;5.85;4.07;;;;;;;;;;4949682;28;20349;-64
2022/08/15 03:13:40;;;;;;;7.60;4.10;;;;;;;;;;4951088;28;20421;-64
2022/08/15 03:16:07;;;;;;;5.32;3.72;;;;;;;;;;4949957;28;20465;-64
2022/08/15 03:18:34;;;;;;;4.65;3.38;;;;;;;;;;4950370;28;20030;-64
2022/08/15 03:21:01;;;;;;;4.90;3.45;;;;;;;;;;4950486;28;20556;-64
2022/08/15 03:23:32;;;;;;;5.18;3.70;;;;;;;;;;4949747;28;20344;-64
2022/08/15 03:25:59;;;;;;;6.07;3.28;;;;;;;;;;4950408;28;20413;-64
2022/08/15 03:28:34;;;;;;;5.20;3.95;;;;;;;;;;4949653;28;20373;-64
2022/08/15 03:31:03;;;;;;;6.78;3.55;;;;;;;;;;4949293;28;20457;-64
2022/08/15 03:33:28;;;;;;;;;;;;;;;;;;4950385;28;20056;-64
2022/08/15 03:35:54;;;;;;;4.68;3.42;;;;;;;;;;4949439;28;19913;-64
2022/08/15 03:38:19;;;;;;;6.10;3.85;;;;;;;;;;4949920;28;20473;-64
2022/08/15 03:40:47;;;;;;;6.30;3.85;;;;;;;;;;4949405;28;20441;-64
2022/08/15 03:43:28;;;;;;;4.60;3.50;;;;;;;;;;4949410;28;20377;-66
2022/08/15 03:46:03;;;;;;;6.00;3.20;;;;;;;;;;4949822;28;20425;-64
2022/08/15 03:48:31;;;;;;;5.18;3.22;;;;;;;;;;4949360;28;20470;-64
2022/08/15 03:50:59;;;;;;;6.47;3.90;;;;;;;;;;4949236;28;20445;-64
2022/08/15 03:53:31;;;;;;;4.68;3.70;;;;;;;;;;4949716;28;20352;-64
2022/08/15 03:55:58;;;;;;;4.80;3.65;;;;;;;;;;4949062;28;20090;-64
2022/08/15 03:58:24;;;;;;;5.30;3.90;;;;;;;;;;4949227;28;20461;-64
2022/08/15 04:00:49;;;;;;;5.35;3.90;;;;;;;;;;4950079;28;20429;-64
2022/08/15 04:03:16;;;;;;;6.88;4.40;;;;;;;;;;4949278;28;20372;-64
2022/08/15 04:05:43;;;;;;;4.68;3.28;;;;;;;;;;4949462;28;20053;-64
2022/08/15 04:08:10;;;;;;;7.80;4.20;;;;;;;;;;4954832;28;20368;-64
2022/08/15 04:10:37;;;;;;;4.72;3.53;;;;;;;;;;4945198;28;20421;-64
2022/08/15 04:13:04;;;;;;;4.43;3.47;;;;;;;;;;4950526;28;20443;-64
2022/08/15 04:15:30;;;;;;;5.03;3.77;;;;;;;;;;4948292;28;20100;-64
2022/08/15 04:17:55;;;;;;;4.43;3.28;;;;;;;;;;4949115;28;20507;-64
2022/08/15 04:20:21;;;;;;;5.43;3.40;;;;;;;;;;4949229;28;20545;-64
2022/08/15 04:22:49;;;;;;;4.78;3.55;;;;;;;;;;4948198;28;20092;-64
2022/08/15 04:25:18;;;;;;;5.28;3.70;;;;;;;;;;4947239;28;20353;-64
2022/08/15 04:27:46;;;;;;;4.82;3.85;;;;;;;;;;4949179;28;20429;-64
2022/08/15 04:30:12;;;;;;;6.27;4.43;;;;;;;;;;4948691;28;20044;-64
2022/08/15 04:32:38;;;;;;;7.20;3.70;;;;;;;;;;4949317;28;20034;-64
2022/08/15 04:35:03;;;;;;;6.13;3.70;;;;;;;;;;4949008;28;20381;-64
2022/08/15 04:37:29;;;;;;;9.20;3.95;;;;;;;;;;4948448;28;20524;-64
2022/08/15 04:39:56;;;;;;;4.50;3.55;;;;;;;;;;4948710;28;20049;-64
2022/08/15 04:42:24;;;;;;;5.30;3.38;;;;;;;;;;4948995;28;20443;-64
2022/08/15 04:44:49;;;;;;;4.88;3.70;;;;;;;;;;4948949;28;20452;-64
2022/08/15 04:47:15;;;;;;;5.45;3.53;;;;;;;;;;4949180;28;20341;-64
2022/08/15 04:49:42;;;;;;;6.18;4.45;;;;;;;;;;4948471;28;20026;-64
2022/08/15 04:52:17;;;;;;;4.55;3.55;;;;;;;;;;4947087;28;20061;-64
2022/08/15 04:54:43;;;;;;;4.82;3.78;;;;;;;;;;4950794;28;20072;-64
2022/08/15 04:57:09;;;;;;;4.95;3.80;;;;;;;;;;4949446;28;20124;-64
2022/08/15 04:59:36;;;;;;;5.25;3.28;;;;;;;;;;4948427;28;20452;-64
2022/08/15 05:02:06;;;;;;;5.18;3.60;;;;;;;;;;4949856;28;20396;-64
2022/08/15 05:04:31;;;;;;;5.05;4.15;;;;;;;;;;4948422;28;20433;-64
2022/08/15 05:06:57;;;;;;;6.18;3.97;;;;;;;;;;4946997;28;20476;-64
2022/08/15 05:09:23;;;;;;;5.65;3.45;;;;;;;;;;4948428;28;20438;-64
2022/08/15 05:11:49;;;;;;;6.97;3.70;;;;;;;;;;4948317;28;20429;-64
2022/08/15 05:14:14;;;;;;;4.97;3.55;;;;;;;;;;4948475;28;20030;-64
2022/08/15 05:16:39;;;;;;;6.95;4.00;;;;;;;;;;4948362;28;20352;-64
2022/08/15 05:19:05;;;;;;;5.78;3.70;;;;;;;;;;4948339;28;20472;-64
2022/08/15 05:21:31;;;;;;;6.72;3.78;;;;;;;;;;4948221;28;20388;-64
2022/08/15 05:23:56;;;;;;;5.60;3.83;;;;;;;;;;4948432;28;20516;-64
2022/08/15 05:26:22;;;;;;;4.47;3.58;;;;;;;;;;4948462;28;20444;-64
2022/08/15 05:28:47;;;;;;;4.13;3.42;;;;;;;;;;4948621;28;20045;-64
2022/08/15 05:31:13;;;;;;;6.47;3.78;;;;;;;;;;4948624;28;20413;-64
2022/08/15 05:33:41;;;;;;;8.02;4.13;;;;;;;;;;4948021;28;20369;-64
2022/08/15 05:36:07;;;;;;;5.50;3.83;;;;;;;;;;4951715;28;20483;-64
2022/08/15 05:38:34;;;;;;;4.97;3.65;;;;;;;;;;4951818;28;20454;-64
2022/08/15 05:41:05;;;;;;;6.20;3.63;;;;;;;;;;4950361;28;20437;-64
2022/08/15 05:44:01;;;;;;;6.28;4.38;;;;;;;;;;4952421;28;20563;-64
2022/08/15 05:46:26;;;;;;;7.78;4.68;;;;;;;;;;4951651;28;20173;-64
2022/08/15 05:49:24;;;;;;;5.28;4.15;;;;;;;;;;4951731;28;20034;-64
2022/08/15 05:51:56;;;;;;;5.07;3.80;;;;;;;;;;4951406;28;20368;-64
2022/08/15 05:54:33;;;;;;;5.95;4.13;;;;;;;;;;4951669;28;20416;-64
2022/08/15 05:57:29;;;;;;;5.35;3.85;;;;;;;;;;4949912;28;20469;-64
2022/08/15 06:00:03;;;;;;;5.72;4.10;;;;;;;;;;4949120;28;20496;-64
2022/08/15 06:02:34;;;;;;;5.32;3.67;;;;;;;;;;4951453;28;20503;-64
2022/08/15 06:05:11;;;;;;;6.30;4.40;;;;;;;;;;4951390;28;20391;-64
2022/08/15 06:07:38;;;;;;;4.75;3.20;;;;;;;;;;4951430;28;20401;-64
2022/08/15 06:10:22;;;;;;;6.07;3.85;;;;;;;;;;4951373;28;20030;-64
2022/08/15 06:12:49;;;;;;;6.85;3.95;;;;;;;;;;4951343;28;20423;-64
2022/08/15 06:15:21;;;;;;;5.72;4.07;;;;;;;;;;4952926;28;20104;-64
2022/08/15 06:17:52;;;;;;;5.72;4.22;;;;;;;;;;4953354;28;20503;-64
2022/08/15 06:20:20;;;;;;;6.38;3.70;;;;;;;;;;4951196;28;20030;-64
2022/08/15 06:22:45;;;;;;;5.32;4.00;;;;;;;;;;4950420;28;20425;-64
2022/08/15 06:25:16;;;;;;;8.13;4.25;;;;;;;;;;4951803;28;20415;-64
2022/08/15 06:28:01;;;;;;;6.57;4.50;;;;;;;;;;4949627;28;20492;-64
2022/08/15 06:30:33;;;;;;;5.63;4.55;;;;;;;;;;4948837;28;20461;-64
2022/08/15 06:33:09;;;;;;;5.53;4.10;;;;;;;;;;4951179;28;20095;-64
2022/08/15 06:35:37;;;;;;;5.93;4.28;;;;;;;;;;4950890;28;20460;-64
2022/08/15 06:38:36;;;;;;;6.00;4.25;;;;;;;;;;4952788;28;20448;-69
2022/08/15 06:41:11;;;;;;;6.38;4.50;;;;;;;;;;4950842;28;20530;-64
2022/08/15 06:43:38;;;;;;;6.97;4.50;;;;;;;;;;4950700;28;20456;-64
2022/08/15 06:46:04;;;;;;;4.65;3.55;;;;;;;;;;4951964;28;20447;-70
2022/08/15 06:48:34;;;;;;;5.10;3.70;;;;;;;;;;4949979;28;20463;-64
2022/08/15 06:51:02;;;;;;;6.38;3.80;;;;;;;;;;4949495;28;20333;-64
2022/08/15 06:53:35;;;;;;;6.13;4.80;;;;;;;;;;4950364;28;20445;-64
2022/08/15 06:56:19;;;;;;;6.93;4.80;;;;;;;;;;4950486;28;20411;-64
2022/08/15 06:59:13;;;;;;;6.40;4.30;;;;;;;;;;4950734;28;20411;-64
2022/08/15 07:01:52;;;;;;;5.80;4.10;;;;;;;;;;4951103;28;20468;-64
2022/08/15 07:04:38;;;;;;;4.93;3.78;;;;;;;;;;4950943;28;20109;-64
2022/08/15 07:07:15;;;;;;;6.65;4.00;;;;;;;;;;4951303;28;20513;-64
2022/08/15 07:10:10;;;;;;;7.40;4.32;;;;;;;;;;4948709;28;20423;-64
2022/08/15 07:12:44;;;;;;;5.88;4.20;;;;;;;;;;4950869;28;20117;-64
2022/08/15 07:15:26;;;;;;;7.15;4.28;;;;;;;;;;4950056;28;20462;-64
2022/08/15 07:17:55;;;;;;;6.45;4.60;;;;;;;;;;4948744;28;20411;-64
2022/08/15 07:20:20;;;;;;;6.32;4.47;;;;;;;;;;4949084;28;20437;-64
2022/08/15 07:22:46;;;;;;;7.03;4.32;;;;;;;;;;4949932;28;20457;-64
2022/08/15 07:25:15;;;;;;;7.80;4.50;;;;;;;;;;4949961;28;20433;-64
2022/08/15 07:27:41;;;;;;;6.35;4.57;;;;;;;;;;4949622;28;20538;-64
2022/08/15 07:30:15;;;;;;;7.70;4.53;;;;;;;;;;4949504;28;20448;-64
2022/08/15 07:32:41;;;;;;;6.93;4.63;;;;;;;;;;4948677;28;20096;-64
2022/08/15 07:35:15;;;;;;;7.60;4.13;;;;;;;;;;4949955;28;20433;-64
2022/08/15 07:38:03;;;;;;;6.20;4.10;;;;;;;;;;4950027;28;20412;-64
2022/08/15 07:40:38;;;;;;;5.13;4.05;;;;;;;;;;4950699;28;20486;-64
2022/08/15 07:43:25;;;;;;;5.70;4.38;;;;;;;;;;4949758;28;20140;-64
2022/08/15 07:46:05;;;;;;;6.60;4.43;;;;;;;;;;4951181;28;20364;-64
2022/08/15 07:48:32;;;;;;;5.28;4.45;;;;;;;;;;4949414;28;20352;-64
2022/08/15 07:51:15;;;;;;;7.43;4.38;;;;;;;;;;4949305;28;20217;-64
2022/08/15 07:53:56;;;;;;;5.63;4.35;;;;;;;;;;4949109;28;20034;-64
2022/08/15 07:56:23;;;;;;;5.35;3.92;;;;;;;;;;4949758;28;20421;-64
2022/08/15 07:58:52;;;;;;;7.25;4.72;;;;;;;;;;4948197;28;20452;-64
2022/08/15 08:01:30;;;;;;;5.22;3.70;;;;;;;;;;4950642;28;20026;-64
2022/08/15 08:04:11;;;;;;;5.30;4.10;;;;;;;;;;4949024;28;20365;-63
2022/08/15 08:06:55;;;;;;;5.75;4.10;;;;;;;;;;4949022;28;20501;-63
2022/08/15 08:09:38;;;;;;;5.95;4.28;;;;;;;;;;4949519;28;20053;-64
2022/08/15 08:12:19;;;;;;;6.82;4.10;;;;;;;;;;4948939;28;20353;-64
2022/08/15 08:15:17;;;;;;;4.82;3.65;;;;;;;;;;4948981;28;20401;-64
2022/08/15 08:17:44;;;;;;;6.18;3.95;;;;;;;;;;4947342;28;20444;-64
2022/08/15 08:20:32;;;;;;;5.53;4.20;;;;;;;;;;4949267;28;20441;-64
2022/08/15 08:23:07;;;;;;;6.40;4.22;;;;;;;;;;4947442;28;20460;-63
2022/08/15 08:25:57;;;;;;;5.47;4.00;;;;;;;;;;4948729;28;20453;-64
2022/08/15 08:28:42;;;;;;;5.78;4.20;;;;;;;;;;4947230;28;20530;-63
2022/08/15 08:31:23;;;;;;;5.63;3.97;;;;;;;;;;4949049;28;20386;-64
2022/08/15 08:33:54;;;;;;;6.82;4.75;;;;;;;;;;4948525;28;20429;-64
2022/08/15 08:36:32;;;;;;;7.30;3.85;;;;;;;;;;4948698;28;20033;-63
2022/08/15 08:39:16;;;;;;;5.45;3.60;;;;;;;;;;4949105;28;20376;-63
2022/08/15 08:41:52;;;;;;;7.22;4.68;;;;;;;;;;4948913;28;20456;-63
2022/08/15 08:45:00;;;;;;;5.82;4.60;;;;;;;;;;4949364;28;20491;-63
2022/08/15 08:47:41;;;;;;;6.97;3.92;;;;;;;;;;4948103;28;20496;-64
2022/08/15 08:50:21;;;;;;;6.13;3.83;;;;;;;;;;4948723;28;20413;-63
2022/08/15 08:53:06;;;;;;;5.95;4.53;;;;;;;;;;4948464;28;20349;-63
2022/08/15 08:55:50;;;;;;;4.93;3.97;;;;;;;;;;4948801;28;20463;-63
2022/08/15 08:58:40;;;;;;;4.90;3.90;;;;;;;;;;4948495;28;20519;-64
2022/08/15 09:01:08;;;;;;;5.25;4.10;;;;;;;;;;4947598;28;20400;-64
2022/08/15 09:03:39;;;;;;;5.47;4.07;;;;;;;;;;4947732;28;20405;-63
2022/08/15 09:06:09;;;;;;;6.07;4.18;;;;;;;;;;4946904;28;20341;-63
2022/08/15 09:08:39;;;;;;;5.88;4.00;;;;;;;;;;4948355;28;20471;-63
2022/08/15 09:11:16;;;;;;;4.40;3.65;;;;;;;;;;4952418;28;20456;-63
2022/08/15 09:13:43;;;;;;;12.82;4.47;;;;;;;;;;4951239;28;20503;-63
2022/08/15 09:16:18;;;;;;;5.85;4.05;;;;;;;;;;4950797;28;20504;-64
2022/08/15 09:19:01;;;;;;;5.75;3.97;;;;;;;;;;4952580;28;20053;-63
2022/08/15 09:21:27;;;;;;;4.78;3.70;;;;;;;;;;4951112;28;20396;-63
2022/08/15 09:23:54;;;;;;;5.72;4.03;;;;;;;;;;4954121;28;20123;-63
2022/08/15 09:26:34;;;;;;;5.45;3.83;;;;;;;;;;4952783;28;20060;-63
2022/08/15 09:29:04;;;;;;;5.63;3.55;;;;;;;;;;4953077;28;20519;-63
2022/08/15 09:31:33;;;;;;;4.75;3.92;;;;;;;;;;4949873;28;20369;-63
2022/08/15 09:34:17;;;;;;;5.10;3.80;;;;;;;;;;4952576;28;20452;-63
2022/08/15 09:36:59;;;;;;;6.32;4.00;;;;;;;;;;4953554;28;20037;-63
2022/08/15 09:39:36;;;;;;;5.82;3.78;;;;;;;;;;4952894;28;20108;-63
2022/08/15 09:42:28;;;;;;;5.78;4.05;;;;;;;;;;4951693;28;20041;-64
2022/08/15 09:45:04;;;;;;;5.68;3.85;;;;;;;;;;4950599;28;20097;-63
2022/08/15 09:47:59;;;;;;;5.50;4.03;;;;;;;;;;4951617;28;20508;-64
2022/08/15 09:50:41;;;;;;;5.68;4.13;;;;;;;;;;4951625;28;20448;-64
2022/08/15 09:53:30;;;;;;;8.98;4.40;;;;;;;;;;4949908;28;20395;-63
2022/08/15 09:55:57;;;;;;;;;;;;;;;;;;4951123;28;20419;-63
2022/08/15 09:58:31;;;;;;;5.15;3.88;;;;;;;;;;4949869;28;20283;-64
2022/08/15 10:01:16;;;;;;;5.22;3.33;;;;;;;;;;4951572;28;20123;-64
2022/08/15 10:03:44;;;;;;;4.60;3.05;;;;;;;;;;4949776;28;20444;-63
2022/08/15 10:06:16;;;;;;;4.30;3.47;;;;;;;;;;4951268;28;20448;-64
2022/08/15 10:09:16;;;;;;;4.93;3.72;;;;;;;;;;4949715;28;20446;-64
2022/08/15 10:11:41;;;;;;;4.53;3.50;;;;;;;;;;4949836;28;20376;-63
2022/08/15 10:14:13;;;;;;;6.10;3.63;;;;;;;;;;4951198;28;20052;-63
2022/08/15 10:16:39;;;;;;;3.55;3.10;;;;;;;;;;4950149;28;20108;-63
2022/08/15 10:19:10;;;;;;;5.07;3.45;;;;;;;;;;4950984;28;20441;-63
2022/08/15 10:21:39;;;;;;;6.00;4.15;;;;;;;;;;4951062;28;20448;-63
2022/08/15 10:24:22;;;;;;;;;;;;;;;;;;4951506;28;20029;-64
2022/08/15 10:27:09;;;;;;;5.60;3.33;;;;;;;;;;4950905;28;20379;-63
2022/08/15 10:29:48;;;;;;;4.95;3.42;;;;;;;;;;4950012;28;20376;-63
2022/08/15 10:32:35;;;;;;;4.63;3.35;;;;;;;;;;4950585;28;20461;-64
2022/08/15 10:35:09;;;;;;;5.95;3.80;;;;;;;;;;4949305;28;20025;-63
2022/08/15 10:37:51;;;;;;;4.40;3.10;;;;;;;;;;4950983;28;20026;-64
2022/08/15 10:40:26;;;;;;;4.97;3.38;;;;;;;;;;4949510;28;20314;-64
2022/08/15 10:43:32;;;;;;;5.47;3.70;;;;;;;;;;4950813;28;20452;-63
2022/08/15 10:46:38;;;;;;;5.45;3.70;;;;;;;;;;4948836;28;20360;-64
2022/08/15 10:49:18;;;;;;;4.78;3.65;;;;;;;;;;4948060;28;20357;-63
2022/08/15 10:52:02;;;;;;;4.30;3.58;;;;;;;;;;4948144;28;20445;-64
2022/08/15 10:54:45;;;;;;;6.90;4.07;;;;;;;;;;4951088;28;20357;-64
2022/08/15 10:57:18;;;;;;;4.22;3.15;;;;;;;;;;4948929;28;20038;-64
2022/08/15 10:59:48;;;;;;;5.32;3.97;;;;;;;;;;4950436;28;20339;-64
2022/08/15 11:02:34;;;;;;;5.07;3.72;;;;;;;;;;4949999;28;20495;-64
2022/08/15 11:05:01;;;;;;;3.58;2.92;;;;;;;;;;4950103;28;20361;-64
2022/08/15 11:07:33;;;;;;;4.57;3.38;;;;;;;;;;4948526;28;20086;-64
2022/08/15 11:10:13;;;;;;;3.53;2.83;;;;;;;;;;4949970;28;20502;-64
2022/08/15 11:12:42;;;;;;;4.75;3.50;;;;;;;;;;4951255;28;20443;-64
2022/08/15 11:15:54;;;;;;;4.40;3.22;;;;;;;;;;4948549;28;20099;-64
2022/08/15 11:18:27;;;;;;;4.13;2.80;;;;;;;;;;4949338;28;20357;-64
2022/08/15 11:20:55;;;;;;;5.15;3.25;;;;;;;;;;4948358;28;20050;-64
2022/08/15 11:23:31;;;;;;;7.18;3.83;;;;;;;;;;4948405;28;20382;-65
2022/08/15 11:25:57;;;;;;;4.15;3.38;;;;;;;;;;4950367;28;20373;-65
2022/08/15 11:28:28;;;;;;;5.07;3.17;;;;;;;;;;4948222;28;20026;-64
2022/08/15 11:31:06;;;;;;;4.75;3.03;;;;;;;;;;4949540;28;20073;-64
2022/08/15 11:33:40;;;;;;;4.75;3.35;;;;;;;;;;4949654;28;20033;-64
2022/08/15 11:36:11;;;;;;;4.15;3.13;;;;;;;;;;4949438;28;20129;-64
2022/08/15 11:38:36;;;;;;;;;;;;;;;;;;4950033;28;20038;-64
2022/08/15 11:41:03;;;;;;;3.58;3.15;;;;;;;;;;4949541;28;20332;-64
2022/08/15 11:43:29;;;;;;;7.47;3.63;;;;;;;;;;4948098;28;20409;-65
2022/08/15 11:45:55;;;;;;;4.70;2.92;;;;;;;;;;4949565;28;20395;-64
2022/08/15 11:48:26;;;;;;;3.72;3.03;;;;;;;;;;4949341;28;20448;-64
2022/08/15 11:51:06;;;;;;;3.95;3.00;;;;;;;;;;4949277;28;20026;-64
2022/08/15 11:54:01;;;;;;;6.60;3.00;;;;;;;;;;4947716;28;20029;-64
2022/08/15 11:56:51;;;;;;;3.47;2.65;;;;;;;;;;4948554;28;20360;-64
2022/08/15 11:59:21;;;;;;;3.80;2.75;;;;;;;;;;4949126;28;20065;-64
2022/08/15 12:02:07;;;;;;;3.20;2.50;;;;;;;;;;4949338;28;20330;-65
2022/08/15 12:04:35;;;;;;;3.78;2.70;;;;;;;;;;4948954;28;20052;-65
2022/08/15 12:07:14;;;;;;;3.90;2.80;;;;;;;;;;4948992;28;20405;-64
2022/08/15 12:09:49;;;;;;;3.55;2.50;;;;;;;;;;4951220;28;20112;-64
2022/08/15 12:12:26;;;;;;;4.32;3.13;;;;;;;;;;4948136;28;20088;-64
2022/08/15 12:14:56;;;;;;;3.58;2.85;;;;;;;;;;4947575;28;20468;-64
2022/08/15 12:17:29;;;;;;;4.97;3.10;;;;;;;;;;4947550;28;20325;-65
2022/08/15 12:19:55;;;;;;;4.10;2.72;;;;;;;;;;4948903;28;20449;-64
2022/08/15 12:22:36;;;;;;;3.17;2.50;;;;;;;;;;4948871;28;20389;-64
2022/08/15 12:25:03;;;;;;;3.97;3.10;;;;;;;;;;4949113;28;20423;-65
2022/08/15 12:27:29;;;;;;;5.05;3.00;;;;;;;;;;4948728;28;20431;-64
2022/08/15 12:29:54;;;;;;;4.10;2.97;;;;;;;;;;4948604;28;20431;-65
2022/08/15 12:32:20;;;;;;;4.97;2.53;;;;;;;;;;4948201;28;20049;-64
2022/08/15 12:34:48;;;;;;;3.63;2.85;;;;;;;;;;4948570;28;20135;-64
2022/08/15 12:37:19;;;;;;;4.55;2.92;;;;;;;;;;4948514;28;20405;-64
2022/08/15 12:40:07;;;;;;;3.85;2.78;;;;;;;;;;4948954;28;20077;-64
2022/08/15 12:42:34;;;;;;;;;;;;;;;;;;4950628;28;20022;-67
2022/08/15 12:45:06;;;;;;;3.75;2.72;;;;;;;;;;4949199;28;20213;-64
2022/08/15 12:47:32;;;;;;;4.20;2.60;;;;;;;;;;4947288;28;20346;-65
2022/08/15 12:49:59;;;;;;;3.90;2.83;;;;;;;;;;4947326;28;20401;-64
2022/08/15 12:52:25;;;;;;;3.13;2.20;;;;;;;;;;4950473;28;20334;-64
2022/08/15 12:54:51;;;;;;;4.47;2.85;;;;;;;;;;4948458;28;20115;-64
2022/08/15 12:57:17;;;;;;;3.33;2.88;;;;;;;;;;4948202;28;20429;-65
2022/08/15 12:59:43;;;;;;;3.90;3.15;;;;;;;;;;4948329;28;20058;-64
2022/08/15 13:02:11;;;;;;;3.95;3.20;;;;;;;;;;4949385;28;20433;-64
2022/08/15 13:04:37;;;;;;;4.50;3.47;;;;;;;;;;4947349;28;20045;-64
2022/08/15 13:07:03;;;;;;;4.80;3.20;;;;;;;;;;4946764;28;20452;-65
2022/08/15 13:09:31;;;;;;;4.03;2.58;;;;;;;;;;4950591;28;20034;-64
2022/08/15 13:11:57;;;;;;;4.50;3.25;;;;;;;;;;4948275;28;20544;-64
2022/08/15 13:14:23;;;;;;;3.13;2.30;;;;;;;;;;4949708;28;20436;-64
2022/08/15 13:16:49;;;;;;;3.38;2.80;;;;;;;;;;4948256;28;20468;-64
2022/08/15 13:19:24;;;;;;;4.35;3.10;;;;;;;;;;4948592;28;20312;-64
2022/08/15 13:24:37;;;;;;;4.40;2.90;;;;;;;;;;4948047;28;20503;-64
2022/08/15 13:27:03;;;;;;;3.97;2.50;;;;;;;;;;4948143;28;20380;-64
2022/08/15 13:29:30;;;;;;;4.65;3.28;;;;;;;;;;4948321;28;20353;-64
2022/08/15 13:31:55;;;;;;;4.75;3.10;;;;;;;;;;4947800;28;20045;-64
2022/08/15 13:34:21;;;;;;;4.30;3.10;;;;;;;;;;4947955;28;20045;-64
2022/08/15 13:36:49;;;;;;;3.72;2.95;;;;;;;;;;4948085;28;20355;-64
2022/08/15 13:39:20;;;;;;;3.65;2.88;;;;;;;;;;4948115;28;20429;-65
2022/08/15 13:41:46;;;;;;;4.70;3.00;;;;;;;;;;4947893;28;20030;-65
2022/08/15 13:44:13;;;;;;;3.88;3.17;;;;;;;;;;4948261;28;20449;-64
2022/08/15 13:46:38;;;;;;;4.43;3.00;;;;;;;;;;4947899;28;20026;-64
2022/08/15 13:49:05;;;;;;;3.67;2.83;;;;;;;;;;4948042;28;20468;-64
2022/08/15 13:51:51;;;;;;;4.13;2.85;;;;;;;;;;4947086;28;20033;-64
2022/08/15 13:54:18;;;;;;;3.78;2.65;;;;;;;;;;4946463;28;20408;-64
2022/08/15 13:56:43;;;;;;;3.90;2.80;;;;;;;;;;4951484;28;20448;-64
2022/08/15 13:59:11;;;;;;;5.03;3.65;;;;;;;;;;4951285;28;20495;-64
2022/08/15 14:01:39;;;;;;;5.50;3.33;;;;;;;;;;4951725;28;20455;-64
2022/08/15 14:04:11;;;;;;;4.22;2.92;;;;;;;;;;4951436;28;20440;-64
2022/08/15 14:06:38;;;;;;;3.42;2.60;;;;;;;;;;4951281;28;20499;-64
2022/08/15 14:09:05;;;;;;;5.47;3.20;;;;;;;;;;4951299;28;20326;-64
2022/08/15 14:11:30;;;;;;;5.18;3.28;;;;;;;;;;4949802;28;20436;-63
2022/08/15 14:13:57;;;;;;;4.43;3.03;;;;;;;;;;4951661;28;20456;-64
2022/08/15 14:16:23;;;;;;;4.10;2.92;;;;;;;;;;4951543;28;20459;-64
2022/08/15 14:18:48;;;;;;;3.03;2.40;;;;;;;;;;4951156;28;20344;-64
2022/08/15 14:21:13;;;;;;;4.07;3.10;;;;;;;;;;4949429;28;20359;-64
2022/08/15 14:23:39;;;;;;;4.00;2.80;;;;;;;;;;4951150;28;20057;-64
2022/08/15 14:26:05;;;;;;;4.03;2.83;;;;;;;;;;4951031;28;20472;-64
2022/08/15 14:28:31;;;;;;;3.20;2.83;;;;;;;;;;4949295;28;20444;-64
2022/08/15 14:30:57;;;;;;;4.15;3.05;;;;;;;;;;4951581;28;20364;-64
2022/08/15 14:33:27;;;;;;;4.50;3.00;;;;;;;;;;4950871;28;20348;-64
2022/08/15 14:35:56;;;;;;;4.03;2.90;;;;;;;;;;4950610;28;20433;-65
2022/08/15 14:38:23;;;;;;;5.60;3.40;;;;;;;;;;4950650;28;20534;-64
2022/08/15 14:40:49;;;;;;;4.18;3.20;;;;;;;;;;4950554;28;20326;-64
2022/08/15 14:43:14;;;;;;;4.80;3.42;;;;;;;;;;4950624;28;20144;-64
2022/08/15 14:45:40;;;;;;;4.13;3.03;;;;;;;;;;4950589;28;20099;-64
2022/08/15 14:48:11;;;;;;;4.82;3.50;;;;;;;;;;4950710;28;20030;-64
2022/08/15 14:50:37;;;;;;;4.00;2.95;;;;;;;;;;4949566;28;20501;-64
2022/08/15 14:53:04;;;;;;;4.53;3.10;;;;;;;;;;4950461;28;20348;-64
2022/08/15 14:55:31;;;;;;;4.00;2.80;;;;;;;;;;4950173;28;20060;-64
2022/08/15 14:57:58;;;;;;;3.90;2.85;;;;;;;;;;4950273;28;20483;-64
2022/08/15 15:00:23;;;;;;;4.50;3.30;;;;;;;;;;4950488;28;20436;-64
2022/08/15 15:02:49;;;;;;;4.55;3.22;;;;;;;;;;4950402;28;20348;-64
2022/08/15 15:05:16;;;;;;;4.68;3.20;;;;;;;;;;4948786;28;20504;-64
2022/08/15 15:07:42;;;;;;;4.93;3.28;;;;;;;;;;4948190;28;20498;-64
2022/08/15 15:10:08;;;;;;;4.25;2.90;;;;;;;;;;4950331;28;20428;-66
2022/08/15 15:12:33;;;;;;;4.68;3.10;;;;;;;;;;4949944;28;20026;-64
2022/08/15 15:15:02;;;;;;;4.30;3.20;;;;;;;;;;4949902;28;20404;-64
2022/08/15 15:17:28;;;;;;;4.43;3.20;;;;;;;;;;4949663;28;20503;-64
2022/08/15 15:19:55;;;;;;;4.72;3.33;;;;;;;;;;4950133;28;20449;-64